Time;durP1;ratioP1;P1;durP2;ratioP2;P2;SDS_P1;SDS_P2;PMS_P1;PMS_P2;Temp;Humidity;BMP_temperature;BMP_pressure;BME280_temperature;BME280_humidity;BME280_pressure;Samples;Min_cycle;Max_cycle;Signal;HPM_P1;HPM_P2
2023/12/29 00:02:20;;;;;;;14.85;2.45;;;;;;;;;;4983481;28;20039;-80
2023/12/29 00:04:47;;;;;;;20.88;4.32;;;;;;;;;;4984752;28;20552;-78
2023/12/29 00:07:13;;;;;;;24.50;3.72;;;;;;;;;;4991127;28;20101;-79
2023/12/29 00:09:40;;;;;;;14.27;2.78;;;;;;;;;;4983953;28;20069;-79
2023/12/29 00:12:07;;;;;;;11.77;2.53;;;;;;;;;;4991972;28;20409;-80
2023/12/29 00:14:33;;;;;;;22.80;3.38;;;;;;;;;;4980368;28;20023;-79
2023/12/29 00:17:00;;;;;;;21.42;3.67;;;;;;;;;;4983126;28;20023;-78
2023/12/29 00:19:26;;;;;;;20.83;3.03;;;;;;;;;;4972314;28;20047;-80
2023/12/29 00:21:54;;;;;;;17.95;3.40;;;;;;;;;;4990580;28;20503;-79
2023/12/29 00:24:20;;;;;;;21.15;3.08;;;;;;;;;;4987252;28;20050;-79
2023/12/29 00:26:47;;;;;;;18.88;4.03;;;;;;;;;;4990640;28;20030;-80
2023/12/29 00:29:15;;;;;;;21.13;3.17;;;;;;;;;;4989001;28;20057;-78
2023/12/29 00:31:41;;;;;;;19.35;2.55;;;;;;;;;;4984093;28;20055;-80
2023/12/29 00:34:07;;;;;;;15.77;2.80;;;;;;;;;;4979700;28;20388;-80
2023/12/29 00:36:33;;;;;;;18.83;2.88;;;;;;;;;;4983127;28;20117;-79
2023/12/29 00:38:59;;;;;;;17.67;3.90;;;;;;;;;;4987729;28;20185;-79
2023/12/29 00:41:25;;;;;;;16.30;2.97;;;;;;;;;;4973379;28;20147;-79
2023/12/29 00:43:51;;;;;;;17.45;2.60;;;;;;;;;;4982934;28;20045;-79
2023/12/29 00:46:17;;;;;;;19.15;2.75;;;;;;;;;;4980966;28;20033;-79
2023/12/29 00:48:43;;;;;;;18.75;3.35;;;;;;;;;;4980754;28;20037;-78
2023/12/29 00:51:10;;;;;;;16.60;2.58;;;;;;;;;;4984840;28;20574;-79
2023/12/29 00:53:36;;;;;;;16.65;2.30;;;;;;;;;;4973697;28;20030;-79
2023/12/29 00:56:02;;;;;;;22.45;2.67;;;;;;;;;;4974539;28;20045;-79
2023/12/29 00:58:28;;;;;;;14.93;3.00;;;;;;;;;;4986148;28;20043;-78
2023/12/29 01:00:54;;;;;;;18.58;3.05;;;;;;;;;;4983195;28;20194;-80
2023/12/29 01:03:20;;;;;;;18.50;2.88;;;;;;;;;;4974398;28;20155;-79
2023/12/29 01:05:46;;;;;;;23.75;3.00;;;;;;;;;;4982556;28;20030;-82
2023/12/29 01:08:13;;;;;;;21.13;3.42;;;;;;;;;;4972605;28;20054;-80
2023/12/29 01:10:39;;;;;;;23.63;3.13;;;;;;;;;;4984986;28;20035;-82
2023/12/29 01:13:08;;;;;;;18.30;3.50;;;;;;;;;;4973526;28;20173;-79
2023/12/29 01:15:34;;;;;;;19.00;3.90;;;;;;;;;;4986343;28;20033;-80
2023/12/29 01:18:00;;;;;;;23.73;4.28;;;;;;;;;;4982133;28;20035;-78
2023/12/29 01:20:26;;;;;;;25.75;3.58;;;;;;;;;;4975612;28;20531;-81
2023/12/29 01:22:52;;;;;;;25.13;4.78;;;;;;;;;;4983045;28;20102;-77
2023/12/29 01:25:18;;;;;;;30.80;4.60;;;;;;;;;;4988380;28;20050;-78
2023/12/29 01:27:44;;;;;;;33.03;5.63;;;;;;;;;;4987495;28;20085;-77
2023/12/29 01:30:10;;;;;;;29.98;4.90;;;;;;;;;;4973681;28;20086;-77
2023/12/29 01:32:36;;;;;;;23.98;3.65;;;;;;;;;;4977489;28;20030;-76
2023/12/29 01:35:03;;;;;;;24.08;3.53;;;;;;;;;;4989844;28;20432;-81
2023/12/29 01:37:29;;;;;;;20.40;2.53;;;;;;;;;;4980644;28;20117;-76
2023/12/29 01:39:55;;;;;;;10.68;2.00;;;;;;;;;;4981259;28;20085;-74
2023/12/29 01:42:21;;;;;;;7.53;1.95;;;;;;;;;;4982520;28;20034;-74
2023/12/29 01:44:53;;;;;;;11.13;2.83;;;;;;;;;;5009258;28;20014;-74
2023/12/29 01:47:20;;;;;;;12.40;1.50;;;;;;;;;;4984397;28;20018;-76
2023/12/29 01:49:46;;;;;;;11.52;1.98;;;;;;;;;;4988059;28;20039;-77
2023/12/29 01:52:13;;;;;;;13.18;2.30;;;;;;;;;;4981619;28;20038;-77
2023/12/29 01:54:42;;;;;;;12.35;2.50;;;;;;;;;;4988617;28;20073;-79
2023/12/29 01:57:08;;;;;;;19.30;2.28;;;;;;;;;;4983903;28;20388;-77
2023/12/29 01:59:35;;;;;;;16.10;2.92;;;;;;;;;;4984423;28;20105;-75
2023/12/29 02:02:01;;;;;;;16.33;2.42;;;;;;;;;;4980651;28;20041;-76
2023/12/29 02:04:28;;;;;;;22.38;3.03;;;;;;;;;;4980354;28;20101;-77
2023/12/29 02:06:55;;;;;;;21.35;2.65;;;;;;;;;;4986257;28;20170;-81
2023/12/29 02:09:21;;;;;;;17.95;3.03;;;;;;;;;;4988635;28;20060;-81
2023/12/29 02:11:48;;;;;;;22.38;3.35;;;;;;;;;;4988163;28;20038;-78
2023/12/29 02:14:15;;;;;;;20.10;3.53;;;;;;;;;;4987545;28;20027;-76
2023/12/29 02:16:43;;;;;;;20.80;2.97;;;;;;;;;;4997233;28;20038;-78
2023/12/29 02:19:33;;;;;;;28.95;3.58;;;;;;;;;;4980335;28;20067;-81
2023/12/29 02:21:59;;;;;;;18.40;3.10;;;;;;;;;;4974116;28;20030;-75
2023/12/29 02:24:27;;;;;;;20.75;3.88;;;;;;;;;;4982978;28;20046;-79
2023/12/29 02:26:58;;;;;;;26.70;3.45;;;;;;;;;;4985965;28;20031;-77
2023/12/29 02:29:25;;;;;;;27.38;3.72;;;;;;;;;;4982046;28;20113;-78
2023/12/29 02:31:53;;;;;;;31.33;4.28;;;;;;;;;;4982117;28;20078;-76
2023/12/29 02:34:20;;;;;;;23.40;3.30;;;;;;;;;;4983623;28;20026;-75
2023/12/29 02:36:47;;;;;;;44.83;4.97;;;;;;;;;;4977958;28;20033;-78
2023/12/29 02:39:13;;;;;;;33.67;5.15;;;;;;;;;;4980289;28;20042;-76
2023/12/29 02:41:39;;;;;;;38.15;5.03;;;;;;;;;;4982926;28;20030;-77
2023/12/29 02:44:05;;;;;;;42.85;6.03;;;;;;;;;;4988035;28;20384;-75
2023/12/29 02:46:31;;;;;;;33.00;5.13;;;;;;;;;;4983296;28;20030;-77
2023/12/29 02:48:59;;;;;;;34.30;4.97;;;;;;;;;;4979807;28;20041;-76
2023/12/29 02:51:25;;;;;;;41.63;6.93;;;;;;;;;;4979116;28;20033;-75
2023/12/29 02:53:51;;;;;;;33.22;5.13;;;;;;;;;;4978613;28;20037;-76
2023/12/29 02:56:17;;;;;;;52.45;7.85;;;;;;;;;;4976208;28;20030;-79
2023/12/29 02:58:45;;;;;;;46.08;5.50;;;;;;;;;;4986031;28;20049;-77
2023/12/29 03:01:13;;;;;;;33.20;5.93;;;;;;;;;;4991360;28;20038;-75
2023/12/29 03:03:39;;;;;;;36.50;5.15;;;;;;;;;;4989005;28;20058;-74
2023/12/29 03:06:06;;;;;;;42.05;4.60;;;;;;;;;;4980535;28;20603;-75
2023/12/29 03:08:32;;;;;;;43.83;5.75;;;;;;;;;;4986597;28;20038;-76
2023/12/29 03:10:59;;;;;;;39.72;6.85;;;;;;;;;;4980281;28;20077;-79
2023/12/29 03:13:25;;;;;;;33.33;6.25;;;;;;;;;;4989824;28;20041;-76
2023/12/29 03:15:51;;;;;;;35.13;5.38;;;;;;;;;;4988667;28;20027;-74
2023/12/29 03:18:17;;;;;;;32.22;5.30;;;;;;;;;;4988466;28;20041;-76
2023/12/29 03:20:43;;;;;;;39.08;7.15;;;;;;;;;;4983476;28;20086;-76
2023/12/29 03:23:09;;;;;;;43.83;6.68;;;;;;;;;;4982812;28;20041;-75
2023/12/29 03:25:35;;;;;;;41.58;8.15;;;;;;;;;;4985678;28;20035;-75
2023/12/29 03:28:01;;;;;;;34.65;5.97;;;;;;;;;;4985835;28;20041;-77
2023/12/29 03:30:27;;;;;;;39.25;7.40;;;;;;;;;;4986874;28;20084;-75
2023/12/29 03:32:53;;;;;;;39.40;4.97;;;;;;;;;;4978074;28;20026;-75
2023/12/29 03:35:19;;;;;;;44.40;7.30;;;;;;;;;;4970717;28;20041;-74
2023/12/29 03:37:45;;;;;;;43.33;6.57;;;;;;;;;;4997000;28;20053;-77
2023/12/29 03:40:12;;;;;;;35.95;5.60;;;;;;;;;;4978138;28;20027;-76
2023/12/29 03:42:38;;;;;;;39.90;6.07;;;;;;;;;;4977835;28;20031;-75
2023/12/29 03:45:05;;;;;;;35.72;5.30;;;;;;;;;;4983620;28;20026;-82
2023/12/29 03:47:31;;;;;;;34.38;5.32;;;;;;;;;;4989735;28;20149;-77
2023/12/29 03:49:57;;;;;;;30.27;5.72;;;;;;;;;;4982312;28;20089;-81
2023/12/29 03:52:24;;;;;;;36.40;6.05;;;;;;;;;;4970996;28;20739;-75
2023/12/29 03:54:50;;;;;;;38.10;4.93;;;;;;;;;;4973160;28;20042;-75
2023/12/29 03:57:16;;;;;;;35.95;4.85;;;;;;;;;;4977908;28;20034;-76
2023/12/29 03:59:42;;;;;;;34.95;5.18;;;;;;;;;;4973389;28;20035;-80
2023/12/29 04:02:08;;;;;;;36.70;6.35;;;;;;;;;;4985278;28;20037;-78
2023/12/29 04:04:38;;;;;;;33.00;4.88;;;;;;;;;;4981757;28;20037;-77
2023/12/29 04:07:04;;;;;;;41.65;6.38;;;;;;;;;;4980264;28;20089;-79
2023/12/29 04:09:30;;;;;;;41.70;7.75;;;;;;;;;;4984643;28;20034;-78
2023/12/29 04:11:56;;;;;;;37.10;6.85;;;;;;;;;;4987153;28;20026;-77
2023/12/29 04:14:22;;;;;;;32.55;4.70;;;;;;;;;;4971369;28;20038;-78
2023/12/29 04:16:48;;;;;;;33.30;6.55;;;;;;;;;;4984151;28;20026;-81
2023/12/29 04:19:14;;;;;;;37.67;6.75;;;;;;;;;;4974387;28;20031;-77
2023/12/29 04:21:40;;;;;;;30.85;5.30;;;;;;;;;;4970599;28;20035;-78
2023/12/29 04:24:06;;;;;;;27.05;4.75;;;;;;;;;;4976239;28;20509;-77
2023/12/29 04:26:36;;;;;;;29.70;5.25;;;;;;;;;;4988664;28;20511;-77
2023/12/29 04:29:02;;;;;;;41.00;6.65;;;;;;;;;;4981401;28;20117;-76
2023/12/29 04:31:28;;;;;;;35.55;5.35;;;;;;;;;;4979277;28;20045;-77
2023/12/29 04:33:54;;;;;;;25.17;4.90;;;;;;;;;;4982171;28;20376;-78
2023/12/29 04:36:20;;;;;;;30.88;4.60;;;;;;;;;;4988412;28;20514;-78
2023/12/29 04:38:46;;;;;;;27.00;4.20;;;;;;;;;;4976283;28;20035;-79
2023/12/29 04:41:14;;;;;;;21.30;4.70;;;;;;;;;;4988066;28;20386;-77
2023/12/29 04:43:40;;;;;;;33.50;4.55;;;;;;;;;;4981035;28;20034;-79
2023/12/29 04:46:06;;;;;;;28.92;5.47;;;;;;;;;;4980183;28;20034;-78
2023/12/29 04:48:32;;;;;;;29.25;4.72;;;;;;;;;;4982624;28;20037;-78
2023/12/29 04:50:58;;;;;;;33.28;5.32;;;;;;;;;;4970676;28;20069;-77
2023/12/29 04:53:24;;;;;;;26.52;4.63;;;;;;;;;;4976452;28;20117;-78
2023/12/29 04:55:50;;;;;;;28.50;5.28;;;;;;;;;;4978873;28;20030;-77
2023/12/29 04:58:16;;;;;;;34.40;5.15;;;;;;;;;;4985071;28;20046;-80
2023/12/29 05:00:42;;;;;;;32.67;4.78;;;;;;;;;;4985113;28;20039;-77
2023/12/29 05:03:08;;;;;;;41.15;5.57;;;;;;;;;;4980102;28;20379;-77
2023/12/29 05:05:34;;;;;;;40.95;5.38;;;;;;;;;;4987570;28;20030;-78
2023/12/29 05:08:00;;;;;;;31.60;5.25;;;;;;;;;;4986397;28;20037;-78
2023/12/29 05:10:27;;;;;;;41.42;5.78;;;;;;;;;;4972830;28;20373;-77
2023/12/29 05:12:53;;;;;;;30.35;4.03;;;;;;;;;;4982208;28;20062;-78
2023/12/29 05:15:19;;;;;;;37.25;7.72;;;;;;;;;;4981773;28;20030;-77
2023/12/29 05:17:45;;;;;;;42.40;6.35;;;;;;;;;;4981324;28;20038;-77
2023/12/29 05:20:11;;;;;;;35.05;4.85;;;;;;;;;;4984635;28;20038;-78
2023/12/29 05:22:37;;;;;;;30.92;6.10;;;;;;;;;;4986951;28;20038;-77
2023/12/29 05:25:03;;;;;;;34.95;5.95;;;;;;;;;;4980820;28;20059;-77
2023/12/29 05:27:29;;;;;;;34.05;5.68;;;;;;;;;;4974137;28;20161;-78
2023/12/29 05:29:55;;;;;;;35.45;6.03;;;;;;;;;;4976584;28;20034;-78
2023/12/29 05:32:21;;;;;;;42.45;6.30;;;;;;;;;;4987638;28;20038;-77
2023/12/29 05:34:47;;;;;;;28.70;4.82;;;;;;;;;;4982771;28;20077;-78
2023/12/29 05:37:13;;;;;;;29.33;6.05;;;;;;;;;;4977496;28;20035;-79
2023/12/29 05:39:42;;;;;;;42.40;5.65;;;;;;;;;;4980166;28;20093;-82
2023/12/29 05:42:08;;;;;;;39.42;5.90;;;;;;;;;;4979756;28;20070;-79
2023/12/29 05:44:37;;;;;;;30.58;6.68;;;;;;;;;;4988309;28;20477;-80
2023/12/29 05:47:03;;;;;;;28.27;4.55;;;;;;;;;;4986416;28;20431;-78
2023/12/29 05:49:30;;;;;;;38.47;5.57;;;;;;;;;;4984383;28;20034;-80
2023/12/29 05:51:56;;;;;;;39.40;6.22;;;;;;;;;;4974831;28;20142;-79
2023/12/29 05:54:22;;;;;;;31.98;4.35;;;;;;;;;;4985813;28;20077;-82
2023/12/29 05:56:48;;;;;;;37.35;5.65;;;;;;;;;;4977905;28;20061;-79
2023/12/29 05:59:14;;;;;;;26.73;4.47;;;;;;;;;;4985678;28;20033;-80
2023/12/29 06:01:40;;;;;;;26.88;3.63;;;;;;;;;;4976801;28;20039;-79
2023/12/29 06:04:06;;;;;;;32.30;4.70;;;;;;;;;;4978842;28;20038;-79
2023/12/29 06:06:32;;;;;;;26.25;4.22;;;;;;;;;;4987364;28;20743;-80
2023/12/29 06:08:58;;;;;;;36.40;5.20;;;;;;;;;;4978209;28;20035;-79
2023/12/29 06:11:24;;;;;;;33.83;6.28;;;;;;;;;;4972868;28;20023;-82
2023/12/29 06:13:50;;;;;;;28.55;4.15;;;;;;;;;;4977428;28;20026;-79
2023/12/29 06:16:23;;;;;;;28.13;4.93;;;;;;;;;;4988106;28;20038;-79
2023/12/29 06:18:49;;;;;;;37.42;5.78;;;;;;;;;;4991907;28;20076;-78
2023/12/29 06:21:15;;;;;;;33.25;5.15;;;;;;;;;;4984732;28;20404;-78
2023/12/29 06:23:41;;;;;;;31.08;5.30;;;;;;;;;;4981552;28;20101;-78
2023/12/29 06:26:14;;;;;;;38.80;5.93;;;;;;;;;;4985409;28;20031;-78
2023/12/29 06:28:40;;;;;;;25.17;5.15;;;;;;;;;;4981474;28;20027;-79
2023/12/29 06:31:06;;;;;;;28.98;5.40;;;;;;;;;;4977113;28;20072;-80
2023/12/29 06:33:32;;;;;;;29.77;4.75;;;;;;;;;;4989797;28;20022;-79
2023/12/29 06:35:58;;;;;;;38.05;6.13;;;;;;;;;;4985700;28;20038;-79
2023/12/29 06:38:24;;;;;;;39.28;4.75;;;;;;;;;;4974435;28;20078;-80
2023/12/29 06:40:50;;;;;;;31.52;5.55;;;;;;;;;;4991005;28;20114;-79
2023/12/29 06:43:16;;;;;;;35.67;4.90;;;;;;;;;;4973168;28;20042;-80
2023/12/29 06:45:42;;;;;;;30.30;5.72;;;;;;;;;;4988534;28;20026;-80
2023/12/29 06:48:08;;;;;;;41.97;6.57;;;;;;;;;;4979560;28;20035;-79
2023/12/29 06:50:34;;;;;;;32.08;5.25;;;;;;;;;;4986063;28;20030;-79
2023/12/29 06:53:00;;;;;;;36.17;6.18;;;;;;;;;;4982968;28;20477;-78
2023/12/29 06:55:26;;;;;;;31.67;4.80;;;;;;;;;;4986705;28;20160;-78
2023/12/29 06:57:52;;;;;;;30.77;5.20;;;;;;;;;;4982758;28;20041;-78
2023/12/29 07:00:19;;;;;;;32.15;4.90;;;;;;;;;;4990471;28;20026;-79
2023/12/29 07:02:45;;;;;;;33.55;4.75;;;;;;;;;;4982663;28;20038;-79
2023/12/29 07:05:11;;;;;;;44.05;7.90;;;;;;;;;;4984452;28;20022;-79
2023/12/29 07:07:37;;;;;;;38.17;4.88;;;;;;;;;;4978424;28;20030;-80
2023/12/29 07:10:04;;;;;;;28.25;5.43;;;;;;;;;;4988629;28;20026;-79
2023/12/29 07:12:30;;;;;;;32.92;6.30;;;;;;;;;;4983186;28;20038;-79
2023/12/29 07:14:56;;;;;;;44.15;6.95;;;;;;;;;;4980369;28;20077;-79
2023/12/29 07:17:22;;;;;;;33.13;6.85;;;;;;;;;;4983974;28;20038;-78
2023/12/29 07:19:49;;;;;;;24.95;4.15;;;;;;;;;;4986503;28;20038;-80
2023/12/29 07:22:15;;;;;;;31.80;5.95;;;;;;;;;;4985991;28;20049;-79
2023/12/29 07:24:41;;;;;;;28.60;4.78;;;;;;;;;;4979785;28;20055;-78
2023/12/29 07:27:07;;;;;;;28.33;5.13;;;;;;;;;;4983993;28;20203;-78
2023/12/29 07:29:34;;;;;;;31.75;4.53;;;;;;;;;;4973199;28;20042;-79
2023/12/29 07:32:00;;;;;;;31.20;5.15;;;;;;;;;;4980133;28;20484;-78
2023/12/29 07:34:27;;;;;;;35.55;5.47;;;;;;;;;;4983836;28;20050;-79
2023/12/29 07:36:53;;;;;;;32.03;4.93;;;;;;;;;;4985906;28;20113;-78
2023/12/29 07:39:19;;;;;;;37.75;5.40;;;;;;;;;;4977447;28;20031;-79
2023/12/29 07:41:46;;;;;;;34.45;5.47;;;;;;;;;;4986863;28;20038;-79
2023/12/29 07:44:12;;;;;;;38.95;5.00;;;;;;;;;;4982015;28;20034;-79
2023/12/29 07:46:39;;;;;;;43.38;6.05;;;;;;;;;;4984497;28;20035;-81
2023/12/29 07:49:05;;;;;;;35.70;5.65;;;;;;;;;;4983341;28;20027;-79
2023/12/29 07:51:31;;;;;;;37.90;6.50;;;;;;;;;;4982285;28;20485;-78
2023/12/29 07:53:57;;;;;;;37.30;5.53;;;;;;;;;;4973784;28;20058;-79
2023/12/29 07:56:23;;;;;;;33.72;5.22;;;;;;;;;;4987193;28;20858;-78
2023/12/29 07:58:49;;;;;;;33.75;5.40;;;;;;;;;;4975046;28;20117;-78
2023/12/29 08:01:15;;;;;;;33.42;4.85;;;;;;;;;;4990398;28;20058;-79
2023/12/29 08:03:41;;;;;;;38.72;5.30;;;;;;;;;;4984696;28;20089;-79
2023/12/29 08:06:07;;;;;;;34.55;5.82;;;;;;;;;;4971433;28;20027;-82
2023/12/29 08:08:34;;;;;;;35.08;5.95;;;;;;;;;;4982635;28;20408;-79
2023/12/29 08:11:00;;;;;;;35.13;5.35;;;;;;;;;;4980485;28;20034;-80
2023/12/29 08:13:26;;;;;;;32.60;5.63;;;;;;;;;;4986520;28;20110;-81
2023/12/29 08:15:52;;;;;;;28.58;5.05;;;;;;;;;;4975366;28;20035;-80
2023/12/29 08:18:18;;;;;;;47.15;8.20;;;;;;;;;;4981391;28;20077;-79
2023/12/29 08:20:44;;;;;;;39.10;5.82;;;;;;;;;;4975196;28;20108;-78
2023/12/29 08:23:10;;;;;;;44.03;5.97;;;;;;;;;;4981302;28;20073;-78
2023/12/29 08:25:39;;;;;;;39.63;5.82;;;;;;;;;;4983839;28;20034;-79
2023/12/29 08:28:06;;;;;;;30.27;4.75;;;;;;;;;;4989833;28;20037;-79
2023/12/29 08:30:35;;;;;;;45.97;6.50;;;;;;;;;;4975346;28;20153;-80
2023/12/29 08:33:01;;;;;;;30.77;6.45;;;;;;;;;;4986190;28;20642;-82
2023/12/29 08:35:27;;;;;;;35.45;5.65;;;;;;;;;;4978112;28;20051;-79
2023/12/29 08:37:53;;;;;;;45.72;6.50;;;;;;;;;;4975237;28;20035;-78
2023/12/29 08:40:19;;;;;;;45.88;6.00;;;;;;;;;;4984746;28;20041;-78
2023/12/29 08:42:45;;;;;;;35.33;5.70;;;;;;;;;;4986550;28;20042;-79
2023/12/29 08:45:11;;;;;;;39.28;5.47;;;;;;;;;;4979014;28;20033;-78
2023/12/29 08:47:37;;;;;;;40.13;8.43;;;;;;;;;;4979784;28;20031;-78
2023/12/29 08:50:04;;;;;;;55.75;8.25;;;;;;;;;;4977661;28;20109;-79
2023/12/29 08:52:30;;;;;;;46.47;6.68;;;;;;;;;;4983531;28;20030;-74
2023/12/29 08:54:56;;;;;;;34.03;5.63;;;;;;;;;;4983427;28;20030;-79
2023/12/29 08:57:22;;;;;;;31.05;4.75;;;;;;;;;;4988556;28;20492;-76
2023/12/29 08:59:48;;;;;;;42.50;6.28;;;;;;;;;;4989124;28;20050;-77
2023/12/29 09:02:14;;;;;;;42.25;5.72;;;;;;;;;;4985038;28;20074;-76
2023/12/29 09:04:40;;;;;;;34.70;6.20;;;;;;;;;;4986487;28;20501;-75
2023/12/29 09:07:06;;;;;;;45.42;6.93;;;;;;;;;;4990020;28;20408;-76
2023/12/29 09:09:32;;;;;;;33.05;5.75;;;;;;;;;;4989609;28;20125;-74
2023/12/29 09:11:58;;;;;;;35.08;5.07;;;;;;;;;;4978439;28;20034;-79
2023/12/29 09:14:25;;;;;;;38.65;5.05;;;;;;;;;;4986277;28;20027;-77
2023/12/29 09:16:51;;;;;;;40.97;5.40;;;;;;;;;;4986950;28;20034;-80
2023/12/29 09:19:17;;;;;;;38.03;6.10;;;;;;;;;;4989760;28;20039;-78
2023/12/29 09:21:43;;;;;;;36.35;5.97;;;;;;;;;;4976914;28;20041;-79
2023/12/29 09:24:09;;;;;;;33.10;4.55;;;;;;;;;;4990554;28;20431;-78
2023/12/29 09:26:35;;;;;;;29.38;4.63;;;;;;;;;;4992871;28;20026;-75
2023/12/29 09:29:01;;;;;;;32.53;5.82;;;;;;;;;;4994081;28;20042;-75
2023/12/29 09:31:27;;;;;;;31.48;4.25;;;;;;;;;;4990997;28;20844;-77
2023/12/29 09:33:53;;;;;;;32.75;4.82;;;;;;;;;;4988976;28;20022;-78
2023/12/29 09:36:19;;;;;;;31.98;5.45;;;;;;;;;;4985410;28;20026;-76
2023/12/29 09:38:46;;;;;;;27.20;4.63;;;;;;;;;;4973658;28;20520;-79
2023/12/29 09:41:14;;;;;;;29.60;4.47;;;;;;;;;;4986707;28;20045;-78
2023/12/29 09:43:42;;;;;;;35.28;5.40;;;;;;;;;;4986900;28;20037;-75
2023/12/29 09:46:09;;;;;;;38.70;4.97;;;;;;;;;;4982920;28;20023;-78
2023/12/29 09:48:37;;;;;;;31.88;5.13;;;;;;;;;;4983776;28;20233;-77
2023/12/29 09:51:06;;;;;;;25.30;4.00;;;;;;;;;;4985459;28;20033;-77
2023/12/29 09:53:33;;;;;;;31.00;4.35;;;;;;;;;;4987992;28;20121;-77
2023/12/29 09:56:00;;;;;;;26.63;4.70;;;;;;;;;;4988808;28;20468;-75
2023/12/29 09:58:27;;;;;;;27.85;5.38;;;;;;;;;;4990484;28;20042;-74
2023/12/29 10:00:53;;;;;;;25.95;4.15;;;;;;;;;;4981807;28;20041;-76
2023/12/29 10:03:19;;;;;;;32.13;6.07;;;;;;;;;;4995015;28;20035;-76
2023/12/29 10:05:49;;;;;;;25.45;4.25;;;;;;;;;;4980325;28;20515;-78
2023/12/29 10:08:15;;;;;;;23.42;2.70;;;;;;;;;;4977631;28;20030;-76
2023/12/29 10:10:42;;;;;;;20.42;3.70;;;;;;;;;;4984252;28;20036;-77
2023/12/29 10:13:10;;;;;;;27.50;4.55;;;;;;;;;;4992706;28;20038;-76
2023/12/29 10:15:43;;;;;;;31.38;4.93;;;;;;;;;;4992055;28;20034;-76
2023/12/29 10:18:12;;;;;;;25.33;3.17;;;;;;;;;;4989738;28;20034;-77
2023/12/29 10:20:47;;;;;;;26.05;3.75;;;;;;;;;;4989849;28;20038;-76
2023/12/29 10:23:18;;;;;;;18.90;3.33;;;;;;;;;;4973468;28;20034;-77
2023/12/29 10:25:44;;;;;;;19.40;4.30;;;;;;;;;;4981912;28;20058;-77
2023/12/29 10:28:10;;;;;;;27.90;3.30;;;;;;;;;;4992293;28;20114;-76
2023/12/29 10:30:40;;;;;;;20.42;3.42;;;;;;;;;;4992234;28;20033;-77
2023/12/29 10:33:06;;;;;;;23.15;3.17;;;;;;;;;;4990883;28;20375;-77
2023/12/29 10:35:34;;;;;;;16.08;3.42;;;;;;;;;;4986087;28;20034;-76
2023/12/29 10:38:13;;;;;;;19.83;3.63;;;;;;;;;;4983878;28;20034;-75
2023/12/29 10:40:40;;;;;;;19.20;3.10;;;;;;;;;;4987242;28;20098;-76
2023/12/29 10:43:07;;;;;;;18.38;4.03;;;;;;;;;;4986097;28;20164;-76
2023/12/29 10:45:34;;;;;;;20.88;3.08;;;;;;;;;;4982556;28;20027;-76
2023/12/29 10:48:00;;;;;;;16.63;3.40;;;;;;;;;;4983565;28;20030;-76
2023/12/29 10:50:27;;;;;;;23.48;3.80;;;;;;;;;;4987936;28;20057;-76
2023/12/29 10:53:12;;;;;;;30.73;4.35;;;;;;;;;;4990830;28;20026;-75
2023/12/29 10:55:39;;;;;;;23.88;4.78;;;;;;;;;;4983744;28;20191;-76
2023/12/29 10:58:08;;;;;;;26.67;4.03;;;;;;;;;;4976640;28;20035;-75
2023/12/29 11:00:34;;;;;;;30.17;4.25;;;;;;;;;;4978617;28;20066;-74
2023/12/29 11:03:00;;;;;;;19.60;4.07;;;;;;;;;;4983495;28;20050;-77
2023/12/29 11:05:27;;;;;;;18.40;2.72;;;;;;;;;;4987818;28;20354;-75
2023/12/29 11:07:54;;;;;;;24.92;3.58;;;;;;;;;;4983712;28;20568;-76
2023/12/29 11:10:21;;;;;;;19.35;3.60;;;;;;;;;;4976029;28;20046;-77
2023/12/29 11:12:48;;;;;;;18.67;3.03;;;;;;;;;;4978469;28;20141;-80
2023/12/29 11:15:14;;;;;;;21.05;4.50;;;;;;;;;;4975092;28;20035;-75
2023/12/29 11:17:49;;;;;;;19.25;2.63;;;;;;;;;;4977990;28;20373;-77
2023/12/29 11:20:16;;;;;;;22.15;4.03;;;;;;;;;;4981355;28;20057;-75
2023/12/29 11:22:43;;;;;;;29.35;3.78;;;;;;;;;;4978536;28;20117;-77
2023/12/29 11:25:09;;;;;;;20.15;3.72;;;;;;;;;;4976691;28;20125;-78
2023/12/29 11:27:35;;;;;;;11.93;2.17;;;;;;;;;;4977036;28;20105;-77
2023/12/29 11:30:02;;;;;;;15.55;2.85;;;;;;;;;;4975045;28;20043;-78
2023/12/29 11:38:57;;;;;;;18.65;3.65;;;;;;;;;;5020364;23;20061;-79
2023/12/29 11:41:26;;;;;;;16.65;2.80;;;;;;;;;;4940378;28;20524;-79
2023/12/29 11:43:58;;;;;;;19.15;3.35;;;;;;;;;;4952726;28;20027;-78
2023/12/29 11:46:24;;;;;;;;;;;;;;;;;;4952231;28;20114;-77
2023/12/29 11:48:58;;;;;;;14.88;2.70;;;;;;;;;;4951580;29;20445;-79
2023/12/29 11:51:30;;;;;;;13.98;2.17;;;;;;;;;;4950652;28;20038;-79
2023/12/29 11:53:56;;;;;;;13.75;2.00;;;;;;;;;;4952535;28;20035;-79
2023/12/29 11:56:22;;;;;;;18.77;3.50;;;;;;;;;;4952846;28;20043;-79
2023/12/29 11:58:48;;;;;;;17.08;3.38;;;;;;;;;;4955630;28;20053;-79
2023/12/29 12:01:14;;;;;;;13.30;2.10;;;;;;;;;;4951056;28;20054;-79
2023/12/29 12:03:40;;;;;;;30.73;3.30;;;;;;;;;;4952650;28;20023;-79
2023/12/29 12:06:08;;;;;;;15.02;2.55;;;;;;;;;;4951540;28;20027;-79
2023/12/29 12:08:35;;;;;;;22.60;3.97;;;;;;;;;;4950215;29;20047;-79
2023/12/29 12:11:20;;;;;;;14.93;3.15;;;;;;;;;;4950561;29;20035;-79
2023/12/29 12:13:47;;;;;;;14.73;2.97;;;;;;;;;;4950631;28;20516;-79
2023/12/29 12:16:50;;;;;;;16.67;2.80;;;;;;;;;;4952000;28;20027;-79
2023/12/29 12:19:17;;;;;;;18.30;3.17;;;;;;;;;;4921724;29;20091;-79
2023/12/29 12:21:46;;;;;;;21.85;3.65;;;;;;;;;;4934480;29;20291;-79
2023/12/29 12:24:12;;;;;;;13.80;2.40;;;;;;;;;;4949224;29;20031;-79
2023/12/29 12:26:41;;;;;;;13.60;2.42;;;;;;;;;;4952178;28;20038;-79
2023/12/29 12:29:08;;;;;;;18.63;2.97;;;;;;;;;;4948571;28;20034;-79
2023/12/29 12:31:34;;;;;;;14.52;2.45;;;;;;;;;;4951243;28;20027;-79
2023/12/29 12:34:00;;;;;;;23.08;3.70;;;;;;;;;;4952298;28;20039;-79
2023/12/29 12:36:26;;;;;;;15.70;2.60;;;;;;;;;;4946456;28;20027;-79
2023/12/29 12:38:53;;;;;;;18.25;2.72;;;;;;;;;;4937291;28;20122;-79
2023/12/29 12:41:20;;;;;;;21.42;2.90;;;;;;;;;;4950898;28;20035;-79
2023/12/29 12:43:51;;;;;;;25.90;3.22;;;;;;;;;;4951755;29;20560;-79
2023/12/29 12:46:17;;;;;;;16.83;2.72;;;;;;;;;;4951330;28;20481;-79
2023/12/29 12:48:45;;;;;;;15.63;2.20;;;;;;;;;;4951356;28;20035;-79
2023/12/29 12:51:12;;;;;;;24.17;3.17;;;;;;;;;;4946804;28;20024;-78
2023/12/29 12:53:41;;;;;;;12.05;2.17;;;;;;;;;;4948866;29;20035;-77
2023/12/29 12:56:07;;;;;;;19.27;2.85;;;;;;;;;;4955781;28;20386;-80
2023/12/29 12:58:34;;;;;;;28.67;4.57;;;;;;;;;;4957357;28;20409;-77
2023/12/29 13:01:01;;;;;;;22.95;3.95;;;;;;;;;;4944627;28;20054;-77
2023/12/29 13:03:27;;;;;;;26.77;3.10;;;;;;;;;;4944480;28;20055;-79
2023/12/29 13:05:53;;;;;;;23.05;4.20;;;;;;;;;;4949549;28;20054;-79
2023/12/29 13:08:20;;;;;;;18.67;3.58;;;;;;;;;;4951266;29;20082;-79
2023/12/29 13:10:47;;;;;;;17.90;3.45;;;;;;;;;;4951317;28;20035;-78
2023/12/29 13:13:14;;;;;;;20.63;4.05;;;;;;;;;;4943005;28;20038;-79
2023/12/29 13:15:49;;;;;;;23.05;3.72;;;;;;;;;;4945667;29;20047;-77
2023/12/29 13:18:16;;;;;;;19.55;3.08;;;;;;;;;;4951283;29;20035;-77
2023/12/29 13:20:46;;;;;;;22.70;2.72;;;;;;;;;;4948800;28;20039;-77
2023/12/29 13:23:12;;;;;;;14.85;3.00;;;;;;;;;;4950921;28;20023;-78
2023/12/29 13:25:41;;;;;;;18.63;3.65;;;;;;;;;;4950846;28;20033;-76
2023/12/29 13:28:08;;;;;;;17.40;2.40;;;;;;;;;;4956919;28;20108;-77
2023/12/29 13:30:35;;;;;;;21.52;3.30;;;;;;;;;;4944264;29;20035;-76
2023/12/29 13:33:06;;;;;;;16.42;2.65;;;;;;;;;;4949195;29;20038;-76
2023/12/29 13:35:37;;;;;;;22.73;4.05;;;;;;;;;;4938545;28;20039;-75
2023/12/29 13:38:17;;;;;;;16.65;3.03;;;;;;;;;;4962051;28;20022;-76
2023/12/29 13:40:47;;;;;;;17.88;3.35;;;;;;;;;;4948143;28;20124;-79
2023/12/29 13:43:15;;;;;;;18.13;2.47;;;;;;;;;;4945322;28;20019;-78
2023/12/29 13:45:42;;;;;;;15.68;2.95;;;;;;;;;;4936026;28;20039;-76
2023/12/29 13:48:08;;;;;;;21.80;2.97;;;;;;;;;;4940169;29;20063;-80
2023/12/29 13:50:34;;;;;;;18.60;3.20;;;;;;;;;;4950676;29;20071;-79
2023/12/29 13:53:01;;;;;;;13.85;2.50;;;;;;;;;;4945106;29;20465;-79
2023/12/29 13:55:27;;;;;;;17.75;2.67;;;;;;;;;;4933246;28;20036;-78
2023/12/29 13:57:53;;;;;;;18.77;2.65;;;;;;;;;;4950646;28;20434;-78
2023/12/29 14:00:21;;;;;;;21.17;4.38;;;;;;;;;;4949857;28;20094;-77
2023/12/29 14:02:55;;;;;;;18.98;3.63;;;;;;;;;;4949587;29;20027;-77
2023/12/29 14:05:24;;;;;;;13.40;2.80;;;;;;;;;;4946992;29;20453;-78
2023/12/29 14:08:00;;;;;;;14.50;3.15;;;;;;;;;;4939949;29;20023;-79
2023/12/29 14:10:35;;;;;;;23.95;3.95;;;;;;;;;;4950933;28;20552;-79
2023/12/29 14:13:11;;;;;;;13.93;2.80;;;;;;;;;;4953158;28;20027;-78
2023/12/29 14:15:38;;;;;;;17.70;3.47;;;;;;;;;;4954954;28;20339;-78
2023/12/29 14:18:27;;;;;;;21.17;2.78;;;;;;;;;;4950999;29;20114;-78
2023/12/29 14:20:53;;;;;;;22.10;4.35;;;;;;;;;;4925180;28;20050;-78
2023/12/29 14:23:22;;;;;;;17.00;3.05;;;;;;;;;;4953339;28;20027;-77
2023/12/29 14:25:48;;;;;;;19.73;3.30;;;;;;;;;;4954117;28;20103;-77
2023/12/29 14:28:15;;;;;;;20.70;3.17;;;;;;;;;;4953509;28;20106;-77
2023/12/29 14:30:42;;;;;;;23.10;3.58;;;;;;;;;;4952877;28;20016;-77
2023/12/29 14:33:08;;;;;;;19.33;3.28;;;;;;;;;;4957886;28;20038;-77
2023/12/29 14:35:35;;;;;;;18.52;3.33;;;;;;;;;;4951604;28;20035;-77
2023/12/29 14:38:02;;;;;;;27.77;4.28;;;;;;;;;;4966433;28;20082;-77